Flight Track Log - Related Links

Times and Time Zones

All times are in EDT time to prevent confusion due to time zone crossing. See the ASQ5520 flight status page for this flight to view local times or setup timezone preferences in your user account.

Time Position Orientation Groundspeed Altitude Reporting Facility
EDT Latitude Longitude Course Direction KTS MPH feet Rate Location/Type
Mon 11:31:56 PM 33.6328 -84.4831 118° Southeast 364 419 2,600  Level Atlanta Center
Mon 11:32:21 PM 33.6167 -84.5167 240° Southwest 217 250 2,900 1,846 Climbing Atlanta TRACON
Mon 11:33:27 PM 33.5667 -84.5667 220° Southwest 270 311 5,400 2,333 Climbing Atlanta TRACON
Mon 11:34:27 PM 33.5167 -84.5000 132° Southeast 280 322 7,800 2,054 Climbing Atlanta TRACON
Mon 11:35:56 PM 33.5203 -84.3628 88° East 292 336 10,500 1,691 Climbing Atlanta Center
Mon 11:36:56 PM 33.5228 -84.2581 88° East 301 346 12,000 1,500 Climbing Atlanta Center
Mon 11:37:00 PM 33.6897 -83.9715 118° Southeast  Level FlightAware Approximate
Mon 11:37:56 PM 33.5269 -84.1458 87° East 324 373 13,500  Level Atlanta Center
Mon 11:38:56 PM 33.5333 -84.0289 86° East 342 394 14,900 1,200 Climbing Atlanta Center
Mon 11:39:56 PM 33.5375 -83.9092 88° East 354 407 15,900 1,000 Climbing Atlanta Center
Mon 11:40:56 PM 33.5414 -83.7822 88° East 372 428 16,900 950 Climbing Atlanta Center
Mon 11:41:56 PM 33.5472 -83.6550 87° East 379 436 17,800 900 Climbing Atlanta Center
Mon 11:42:56 PM 33.5575 -83.5403 84° East 385 443 18,700 600 Climbing Atlanta Center
Mon 11:43:56 PM 33.5733 -83.4081 82° East 391 450 19,000 150 Climbing Atlanta Center
Mon 11:44:56 PM 33.5894 -83.2708 82° East 397 457 19,000  Level Atlanta Center
Mon 11:45:56 PM 33.6072 -83.1333 81° East 414 476 19,000 -550 Level Atlanta Center
Mon 11:46:56 PM 33.6019 -82.9989 93° East 407 468 17,900 -1,700 Descending Atlanta Center
Mon 11:47:56 PM 33.5717 -82.8769 107° East 389 448 15,600 -2,250 Descending Atlanta Center
Mon 11:48:56 PM 33.5453 -82.7503 104° East 383 441 13,400 -2,200 Descending Atlanta Center
Mon 11:49:56 PM 33.5147 -82.6236 106° East 372 428 11,200 -1,600 Descending Atlanta Center
Mon 11:50:56 PM 33.4906 -82.5294 107° East 348 400 10,200 -1,250 Descending Atlanta Center
Mon 11:51:56 PM 33.4708 -82.4400 105° East 308 354 8,700 -1,700 Descending Atlanta Center
Mon 11:52:56 PM 33.4528 -82.3508 104° East 278 320 6,800 -1,700 Descending Atlanta Center
Mon 11:53:56 PM 33.4328 -82.2614 105° East 278 320 5,300 -1,500 Descending Atlanta Center
Mon 11:54:56 PM 33.4336 -82.1719 89° East 273 314 3,800 -1,450 Descending Atlanta Center
Mon 11:55:56 PM 33.4447 -82.0869 81° East 268 308 2,400 -1,000 Descending Atlanta Center
Mon 11:56:56 PM 33.4458 -82.0222 89° East 233 268 1,800 -550 Descending Atlanta Center
Mon 11:57:56 PM 33.4222 -81.9806 124° Southeast 165 190 1,300 -500 Descending Atlanta Center

Login

Don't have an account? Register now (free) for customized features, flight alerts, and more!